| Date | Time | Temp. (oF) | Dew Point (oF) | Rel. Hum. (%) | Press. (in.) | Wind Dir. | Wind Speed (mph) | Hourly Rainfall (in.) |
|
|---|---|---|---|---|---|---|---|---|---|
| 1 | 03/21 | 00:00 | 60 | 35 | 40 | 30.00 | SW | 5 | 0.00 |
| 2 | 03/20 | 23:00 | 58 | 34 | 41 | 30.00 | SSW | 0 | 0.00 |
| 3 | 03/20 | 22:00 | 60 | 34 | 38 | 29.99 | SSW | 0 | 0.00 |
| 4 | 03/20 | 21:00 | 63 | 35 | 36 | 29.98 | SSW | 0 | 0.00 |
| 5 | 03/20 | 20:00 | 64 | 34 | 34 | 29.97 | SSW | 0 | 0.00 |
| 6 | 03/20 | 19:00 | 69 | 35 | 29 | 29.95 | W | 0 | 0.00 |
| 7 | 03/20 | 18:00 | 72 | 34 | 26 | 29.94 | WSW | 6 | 0.00 |
| 8 | 03/20 | 17:00 | 72 | 36 | 28 | 29.93 | WSW | 7 | 0.00 |
| 9 | 03/20 | 16:00 | 73 | 38 | 29 | 29.94 | WSW | 6 | 0.00 |
| 10 | 03/20 | 15:00 | 73 | 36 | 27 | 29.96 | SW | 11 | 0.00 |
| 11 | 03/20 | 14:00 | 71 | 40 | 33 | 29.98 | NW | 0 | 0.00 |
| 12 | 03/20 | 13:00 | 71 | 40 | 34 | 30.00 | WNW | 5 | 0.00 |
| 13 | 03/20 | 12:00 | 69 | 42 | 39 | 30.02 | SW | 0 | 0.00 |
| 14 | 03/20 | 11:00 | 66 | 42 | 42 | 30.03 | WNW | 0 | 0.00 |
| 15 | 03/20 | 10:00 | 58 | 40 | 52 | 30.02 | NE | 0 | 0.00 |
| 16 | 03/20 | 09:00 | 50 | 45 | 84 | 30.01 | WNW | 0 | 0.00 |
| 17 | 03/20 | 08:00 | 39 | 36 | 92 | 30.01 | W | 0 | 0.00 |
| 18 | 03/20 | 07:00 | 38 | 35 | 89 | 29.99 | W | 0 | 0.00 |
| 19 | 03/20 | 06:00 | 40 | 36 | 86 | 29.97 | W | 0 | 0.00 |
| 20 | 03/20 | 05:00 | 41 | 36 | 85 | 29.96 | W | 0 | 0.00 |
| 21 | 03/20 | 04:00 | 43 | 37 | 82 | 29.94 | W | 0 | 0.00 |
| 22 | 03/20 | 03:00 | 44 | 37 | 79 | 29.94 | W | 0 | 0.00 |
| 23 | 03/20 | 02:00 | 46 | 38 | 76 | 29.93 | WSW | 0 | 0.00 |
| 24 | 03/20 | 01:00 | 49 | 36 | 63 | 29.92 | W | 0 | 0.00 |